• Join FlightAware (Why Join?)
  • Login
  • US Flag 
12:19AM EDT


 

Airport Tracker/Info


-or-


 

Live Flight TrackerFlight Track Log ✈ RPA3228 ✈ 04-Jul-2013 ✈ KBNA - KDCA

Flight Track Log - Related Links

Times and Time Zones

All times are in EDT time to prevent confusion due to time zone crossing. See the RPA3228 flight status page for this flight to view local times or setup timezone preferences in your user account.

Time Position Orientation Groundspeed Altitude Reporting Facility
EDT Latitude Longitude Course Direction KTS MPH feet Rate Location/Type
07:31AM 36.1167 -86.6833 64° Northeast 141 162 1,600  Level Nashville TRACON
07:32AM 36.0500 -86.6333 149° Southeast 246 283 4,300 2,580 Climbing Nashville TRACON
07:33AM 36.1582 -86.3093 76° East  Level FlightAware Approximate
07:34AM 36.1816 -86.1920 76° East  Level FlightAware Approximate
07:34AM 36.0772 -86.5053 75° East 279 321 9,200  Level Indianapolis Center
07:35AM 36.1991 -86.0730 80° East  Level FlightAware Approximate
07:35AM 36.1058 -86.4031 71° East 303 349 11,800  Level Indianapolis Center
07:36AM 36.2410 -85.9641 64° Northeast  Level FlightAware Approximate
07:36AM 36.1375 -86.2947 70° East 326 375 14,600  Level Indianapolis Center
07:37AM 36.1697 -86.1794 71° East 347 399 16,500 1,980 Climbing Indianapolis Center
07:38AM 36.2044 -86.0600 70° East 363 418 18,700 1,860 Climbing Indianapolis Center
07:39AM 36.2581 -85.9397 61° Northeast 390 449 20,400 1,560 Climbing Indianapolis Center
07:40AM 36.3111 -85.8206 61° Northeast 396 456 21,900 1,500 Climbing Indianapolis Center
07:41AM 36.3808 -85.6750 59° Northeast 408 470 23,500 1,680 Climbing Indianapolis Center
07:42AM 36.4403 -85.5464 60° Northeast 422 486 25,400 1,680 Climbing Indianapolis Center
07:43AM 36.5031 -85.4142 59° Northeast 436 502 27,000 1,800 Climbing Indianapolis Center
07:44AM 36.5528 -85.2692 67° East 450 518 29,100 1,740 Climbing Indianapolis Center
07:45AM 36.5981 -85.1258 68° East 445 512 30,600 1,380 Climbing Indianapolis Center
07:46AM 36.6444 -84.9778 69° East 455 524 32,000 1,380 Climbing Indianapolis Center
07:47AM 36.6911 -84.8283 69° East 459 528 33,500 1,500 Climbing Indianapolis Center
07:48AM 36.7381 -84.6814 68° East 456 525 35,100 1,320 Climbing Indianapolis Center
07:49AM 36.7828 -84.5347 69° East 452 520 36,200 960 Climbing Indianapolis Center
07:50AM 36.8286 -84.3906 68° East 460 529 37,100 900 Climbing Indianapolis Center
07:51AM 36.8756 -84.2406 69° East 463 533 38,100 900 Climbing Indianapolis Center
07:52AM 36.9214 -84.0908 69° East 461 531 39,000 420 Climbing Indianapolis Center
07:53AM 36.9667 -83.9383 70° East 466 536 39,000  Level Indianapolis Center
07:54AM 37.0214 -83.7606 69° East 470 541 39,000  Level Indianapolis Center
07:55AM 37.0678 -83.6072 69° East 474 545 39,000  Level Indianapolis Center
07:56AM 37.1144 -83.4522 69° East 474 545 39,000  Level Indianapolis Center
07:57AM 37.1611 -83.2972 69° East 472 543 39,000  Level Indianapolis Center
07:58AM 37.2072 -83.1414 70° East 472 543 39,000  Level Indianapolis Center
07:59AM 37.2533 -82.9842 70° East 477 549 39,000  Level Indianapolis Center
08:00AM 37.2992 -82.8275 70° East 475 547 39,000  Level Indianapolis Center
08:01AM 37.3453 -82.6731 69° East 472 543 39,000 -360 Level Indianapolis Center
08:02AM 37.3903 -82.5183 70° East 469 540 38,300 -840 Descending Indianapolis Center
08:03AM 37.4342 -82.3628 70° East 469 540 37,400 -660 Descending Indianapolis Center
08:04AM 37.4783 -82.2103 70° East 466 536 37,000 -240 Descending Indianapolis Center
08:05AM 37.5217 -82.0556 71° East 465 535 37,000  Level Indianapolis Center
08:06AM 37.5653 -81.9044 70° East 462 532 37,000  Level Indianapolis Center
08:07AM 37.6072 -81.7503 71° East 463 533 37,000  Level Indianapolis Center
08:08AM 37.6514 -81.5919 71° East 474 545 37,000  Level Indianapolis Center
08:09AM 37.6956 -81.4331 71° East 466 536 37,000  Level Indianapolis Center
08:10AM 37.7358 -81.2869 71° East 455 524 37,000  Level Indianapolis Center
08:11AM 37.7769 -81.1403 70° East 455 524 37,000  Level Indianapolis Center
08:12AM 37.8328 -80.9786 66° East 454 522 37,000  Level Indianapolis Center
08:13AM 37.8831 -80.8339 66° East 452 520 37,000  Level Indianapolis Center
08:14AM 37.9339 -80.6894 66° East 451 519 37,000 -60 Level Indianapolis Center
08:15AM 37.9856 -80.5453 66° East 451 519 36,900 -780 Descending Indianapolis Center
08:16AM 38.0342 -80.4036 66° East 450 518 35,500 -1,440 Descending Indianapolis Center
08:17AM 38.0889 -80.2533 65° Northeast 457 526 34,000 -1,620 Descending Indianapolis Center
08:18AM 38.1461 -80.0881 66° East 456 525 32,300 -1,440 Descending Indianapolis Center
08:19AM 38.1986 -79.9461 65° Northeast 452 520 31,000 -660 Descending Washington Center
08:20AM 38.2517 -79.8011 65° Northeast 452 520 31,000  Level Washington Center
08:21AM 38.3028 -79.6533 66° East 452 520 31,000  Level Washington Center
08:22AM 38.3533 -79.5050 66° East 452 520 31,000  Level Washington Center
08:23AM 38.4108 -79.3439 65° Northeast 452 520 31,000 -1,080 Level Washington Center
08:24AM 38.4447 -79.1892 74° East 447 514 28,900 -1,980 Descending Washington Center
08:25AM 38.4722 -79.0311 77° East 441 507 27,000 -1,500 Descending Washington Center
08:26AM 38.4994 -78.8786 77° East 441 507 25,900 -1,500 Descending Washington Center
08:27AM 38.5178 -78.7414 80° East 441 507 24,100 -1,800 Descending Washington Center
08:28AM 38.5403 -78.5964 79° East 428 493 22,400 -1,500 Descending Washington Center
08:29AM 38.5625 -78.4539 79° East 415 478 21,100 -1,500 Descending Washington Center
08:30AM 38.5844 -78.3139 79° East 408 470 19,500 -1,620 Descending Washington Center
08:31AM 38.6186 -78.1797 72° East 403 464 18,000 -1,740 Descending Washington Center
08:32AM 38.6611 -78.0511 67° East 389 448 16,000 -1,860 Descending Washington Center
08:33AM 38.6989 -77.9325 68° East 376 433 14,400 -1,620 Descending Washington Center
08:34AM 38.7364 -77.8247 66° East 350 403 12,900 -1,380 Descending Washington Center
08:35AM 38.7942 -77.7358 50° Northeast 326 375 11,600 -1,380 Descending Washington Center
08:36AM 38.8542 -77.6522 47° Northeast 315 362 10,200 -1,560 Descending Washington Center
08:37AM 38.9167 -77.5500 52° Northeast 311 358 8,700 -1,560 Descending Potomac TRACON
08:38AM 38.9500 -77.4667 63° Northeast 311 358 7,400 -1,380 Descending Potomac TRACON
08:39AM 38.9833 -77.3667 67° East 298 343 6,100 -720 Descending Potomac TRACON
08:40AM 39.0000 -77.2833 76° East 248 285 6,000 -660 Descending Potomac TRACON
08:41AM 39.0000 -77.2167 90° East 205 236 4,800 -1,380 Descending Potomac TRACON
08:42AM 38.9833 -77.1667 113° Southeast 178 205 3,400 -1,500 Descending Potomac TRACON
08:43AM 38.9500 -77.1167 131° Southeast 175 201 2,000 -1,440 Descending Potomac TRACON